Time;durP1;ratioP1;P1;durP2;ratioP2;P2;SDS_P1;SDS_P2;PMS_P1;PMS_P2;Temp;Humidity;BMP_temperature;BMP_pressure;BME280_temperature;BME280_humidity;BME280_pressure;Samples;Min_cycle;Max_cycle;Signal;HPM_P1;HPM_P2
2021/09/24 00:00:16;;;;;;;23.63;7.07;;;;;;;;;;5071056;28;20027;-70
2021/09/24 00:02:42;;;;;;;19.98;7.35;;;;;;;;;;5071292;28;20107;-71
2021/09/24 00:05:09;;;;;;;18.98;7.68;;;;;;;;;;5065867;28;20146;-71
2021/09/24 00:07:35;;;;;;;16.75;7.70;;;;;;;;;;5068572;28;20607;-71
2021/09/24 00:10:01;;;;;;;15.07;7.40;;;;;;;;;;5071884;28;20119;-71
2021/09/24 00:12:27;;;;;;;16.95;7.68;;;;;;;;;;5070943;28;20475;-71
2021/09/24 00:14:53;;;;;;;21.15;7.25;;;;;;;;;;5071816;28;20019;-71
2021/09/24 00:17:19;;;;;;;24.13;7.20;;;;;;;;;;5069528;28;20032;-71
2021/09/24 00:19:45;;;;;;;21.60;7.75;;;;;;;;;;5071931;28;20082;-71
2021/09/24 00:22:11;;;;;;;20.85;8.00;;;;;;;;;;5070361;28;20085;-70
2021/09/24 00:24:37;;;;;;;14.18;7.57;;;;;;;;;;5070942;28;20024;-70
2021/09/24 00:27:05;;;;;;;17.85;7.82;;;;;;;;;;5071015;28;20040;-71
2021/09/24 00:29:31;;;;;;;27.88;7.70;;;;;;;;;;5071034;28;20501;-71
2021/09/24 00:31:57;;;;;;;20.90;7.93;;;;;;;;;;5071690;28;20037;-71
2021/09/24 00:34:24;;;;;;;20.55;8.32;;;;;;;;;;5069890;28;20039;-71
2021/09/24 00:36:50;;;;;;;19.30;8.90;;;;;;;;;;5069489;28;20028;-70
2021/09/24 00:39:16;;;;;;;14.88;8.07;;;;;;;;;;5068726;28;20016;-71
2021/09/24 00:41:42;;;;;;;14.30;7.35;;;;;;;;;;5070404;28;20127;-70
2021/09/24 00:44:08;;;;;;;25.35;7.95;;;;;;;;;;5070642;28;20229;-71
2021/09/24 00:46:34;;;;;;;17.30;7.65;;;;;;;;;;5070704;28;20016;-70
2021/09/24 00:49:00;;;;;;;21.20;8.23;;;;;;;;;;5070076;28;20090;-71
2021/09/24 00:51:26;;;;;;;20.58;8.27;;;;;;;;;;5070279;28;20032;-71
2021/09/24 00:53:53;;;;;;;21.38;7.93;;;;;;;;;;5067338;28;20024;-70
2021/09/24 00:56:19;;;;;;;15.13;7.53;;;;;;;;;;5069484;28;20035;-70
2021/09/24 00:58:45;;;;;;;22.40;9.18;;;;;;;;;;5070081;28;20060;-70
2021/09/24 01:01:11;;;;;;;19.67;8.13;;;;;;;;;;5069914;28;20076;-70
2021/09/24 01:03:37;;;;;;;21.70;8.73;;;;;;;;;;5068577;28;20051;-70
2021/09/24 01:06:03;;;;;;;21.67;8.90;;;;;;;;;;5067670;28;20051;-71
2021/09/24 01:08:31;;;;;;;19.08;10.07;;;;;;;;;;5065172;28;20093;-70
2021/09/24 01:10:57;;;;;;;24.50;8.73;;;;;;;;;;5065682;28;20044;-71
2021/09/24 01:13:23;;;;;;;22.98;8.90;;;;;;;;;;5070194;28;20119;-71
2021/09/24 01:15:49;;;;;;;23.08;9.85;;;;;;;;;;5070580;28;20032;-71
2021/09/24 01:18:16;;;;;;;24.00;9.85;;;;;;;;;;5068670;28;20037;-70
2021/09/24 01:20:42;;;;;;;22.77;11.35;;;;;;;;;;5069298;28;20037;-71
2021/09/24 01:23:08;;;;;;;23.27;9.23;;;;;;;;;;5069917;28;20115;-71
2021/09/24 01:25:34;;;;;;;24.83;11.88;;;;;;;;;;5068811;28;20176;-70
2021/09/24 01:28:00;;;;;;;19.83;10.38;;;;;;;;;;5068880;28;20041;-71
2021/09/24 01:30:26;;;;;;;27.23;11.45;;;;;;;;;;5067539;28;20025;-71
2021/09/24 01:32:53;;;;;;;26.40;11.93;;;;;;;;;;5070779;28;20494;-70
2021/09/24 01:35:19;;;;;;;23.15;11.68;;;;;;;;;;5070643;28;20107;-70
2021/09/24 01:37:45;;;;;;;23.05;12.43;;;;;;;;;;5066183;28;20154;-70
2021/09/24 01:40:13;;;;;;;25.00;12.88;;;;;;;;;;5067676;28;20052;-71
2021/09/24 01:42:39;;;;;;;30.85;15.20;;;;;;;;;;5070765;28;20031;-71
2021/09/24 01:45:06;;;;;;;30.45;14.85;;;;;;;;;;5069463;28;20042;-71
2021/09/24 01:47:32;;;;;;;32.95;13.65;;;;;;;;;;5067816;28;20108;-71
2021/09/24 01:49:59;;;;;;;30.77;16.10;;;;;;;;;;5067486;28;20040;-70
2021/09/24 01:52:25;;;;;;;26.70;15.55;;;;;;;;;;5069129;28;20509;-71
2021/09/24 01:54:51;;;;;;;27.27;13.73;;;;;;;;;;5067371;28;20028;-71
2021/09/24 01:57:17;;;;;;;27.13;15.07;;;;;;;;;;5067641;28;20028;-71
2021/09/24 01:59:43;;;;;;;24.85;15.70;;;;;;;;;;5068820;28;20025;-71
2021/09/24 02:02:09;;;;;;;24.50;15.40;;;;;;;;;;5063148;28;20122;-71
2021/09/24 02:04:35;;;;;;;33.47;14.90;;;;;;;;;;5069449;28;20025;-70
2021/09/24 02:07:01;;;;;;;34.08;16.70;;;;;;;;;;5064167;28;20040;-71
2021/09/24 02:09:27;;;;;;;28.02;16.77;;;;;;;;;;5067151;28;20016;-71
2021/09/24 02:11:53;;;;;;;29.23;16.42;;;;;;;;;;5069056;28;20028;-71
2021/09/24 02:14:19;;;;;;;27.75;15.00;;;;;;;;;;5059246;28;20021;-70
2021/09/24 02:16:45;;;;;;;28.50;15.30;;;;;;;;;;5065716;28;20029;-71
2021/09/24 02:19:11;;;;;;;29.95;17.10;;;;;;;;;;5065550;28;20016;-71
2021/09/24 02:21:38;;;;;;;23.73;14.27;;;;;;;;;;5068564;28;20044;-71
2021/09/24 02:24:04;;;;;;;27.80;14.77;;;;;;;;;;5067373;28;20090;-71
2021/09/24 02:26:30;;;;;;;30.50;16.40;;;;;;;;;;5069409;28;20123;-71
2021/09/24 02:28:56;;;;;;;26.30;14.85;;;;;;;;;;5068473;28;20043;-71
2021/09/24 02:31:22;;;;;;;28.77;16.27;;;;;;;;;;5069252;28;20020;-71
2021/09/24 02:33:48;;;;;;;23.55;13.15;;;;;;;;;;5073552;28;20090;-71
2021/09/24 02:36:14;;;;;;;25.17;15.68;;;;;;;;;;5068371;28;20024;-71
2021/09/24 02:38:40;;;;;;;27.05;16.88;;;;;;;;;;5068284;28;20028;-71
2021/09/24 02:41:06;;;;;;;29.35;16.00;;;;;;;;;;5068042;28;20136;-71
2021/09/24 02:43:33;;;;;;;29.20;17.33;;;;;;;;;;5059863;28;20029;-71
2021/09/24 02:45:59;;;;;;;23.45;14.55;;;;;;;;;;5065709;28;20025;-71
2021/09/24 02:48:25;;;;;;;23.52;15.10;;;;;;;;;;5065969;28;20032;-71
2021/09/24 02:50:51;;;;;;;30.20;15.82;;;;;;;;;;5058280;28;20032;-71
2021/09/24 02:53:18;;;;;;;30.67;15.35;;;;;;;;;;5063555;28;20033;-71
2021/09/24 02:55:44;;;;;;;27.45;15.68;;;;;;;;;;5069531;28;20372;-71
2021/09/24 02:58:10;;;;;;;27.48;16.52;;;;;;;;;;5067272;28;20125;-71
2021/09/24 03:00:36;;;;;;;31.88;15.90;;;;;;;;;;5068717;28;20025;-71
2021/09/24 03:03:02;;;;;;;29.33;16.10;;;;;;;;;;5062579;28;20036;-70
2021/09/24 03:05:28;;;;;;;28.25;15.75;;;;;;;;;;5060876;28;20390;-70
2021/09/24 03:07:54;;;;;;;29.00;16.33;;;;;;;;;;5067282;28;20085;-71
2021/09/24 03:10:20;;;;;;;28.05;17.95;;;;;;;;;;5067598;28;20028;-71
2021/09/24 03:12:46;;;;;;;26.95;17.10;;;;;;;;;;5069048;28;20020;-70
2021/09/24 03:15:13;;;;;;;32.17;16.90;;;;;;;;;;5070202;28;20024;-71
2021/09/24 03:17:39;;;;;;;30.35;16.05;;;;;;;;;;5065869;28;20147;-71
2021/09/24 03:20:06;;;;;;;30.73;17.85;;;;;;;;;;5064969;28;20052;-71
2021/09/24 03:22:32;;;;;;;33.58;17.65;;;;;;;;;;5072450;28;20066;-71
2021/09/24 03:24:58;;;;;;;26.40;17.65;;;;;;;;;;5069644;28;20108;-70
2021/09/24 03:27:25;;;;;;;28.25;17.73;;;;;;;;;;5068339;28;20036;-71
2021/09/24 03:29:51;;;;;;;31.05;18.33;;;;;;;;;;5072252;28;20031;-71
2021/09/24 03:32:19;;;;;;;33.63;17.52;;;;;;;;;;5071478;28;20031;-71
2021/09/24 03:34:46;;;;;;;30.00;16.85;;;;;;;;;;5070264;28;20056;-70
2021/09/24 03:37:12;;;;;;;24.73;14.43;;;;;;;;;;5070865;28;20033;-71
2021/09/24 03:39:38;;;;;;;28.05;17.45;;;;;;;;;;5072537;28;20102;-71
2021/09/24 03:42:06;;;;;;;37.10;18.20;;;;;;;;;;5070799;28;20118;-71
2021/09/24 03:44:32;;;;;;;44.63;20.15;;;;;;;;;;5072973;28;20043;-71
2021/09/24 03:46:58;;;;;;;31.40;18.55;;;;;;;;;;5070079;28;20024;-70
2021/09/24 03:49:24;;;;;;;45.77;20.60;;;;;;;;;;5070314;28;20013;-70
2021/09/24 03:51:50;;;;;;;39.28;19.38;;;;;;;;;;5071834;28;20350;-70
2021/09/24 03:54:17;;;;;;;38.53;18.58;;;;;;;;;;5081919;28;20486;-71
2021/09/24 03:56:43;;;;;;;38.60;20.08;;;;;;;;;;5070387;28;20043;-70
2021/09/24 03:59:10;;;;;;;46.25;21.08;;;;;;;;;;5067288;28;20532;-70
2021/09/24 04:01:36;;;;;;;41.63;20.73;;;;;;;;;;5070836;28;20037;-70
2021/09/24 04:04:02;;;;;;;41.35;21.85;;;;;;;;;;5070603;28;20020;-70
2021/09/24 04:06:29;;;;;;;43.97;22.83;;;;;;;;;;5069960;28;20055;-70
2021/09/24 04:08:55;;;;;;;45.78;23.60;;;;;;;;;;5070414;28;20402;-71
2021/09/24 04:11:21;;;;;;;42.58;22.75;;;;;;;;;;5066446;28;20106;-70
2021/09/24 04:13:47;;;;;;;41.95;22.85;;;;;;;;;;5070803;28;20054;-70
2021/09/24 04:16:13;;;;;;;41.67;23.67;;;;;;;;;;5072174;28;20081;-70
2021/09/24 04:18:39;;;;;;;50.60;25.10;;;;;;;;;;5069330;28;20029;-70
2021/09/24 04:21:05;;;;;;;49.95;24.48;;;;;;;;;;5071537;28;20024;-70
2021/09/24 04:23:31;;;;;;;45.03;24.73;;;;;;;;;;5066120;28;20025;-70
2021/09/24 04:25:57;;;;;;;49.65;26.25;;;;;;;;;;5070490;28;20031;-70
2021/09/24 04:28:23;;;;;;;51.72;27.42;;;;;;;;;;5070133;28;20029;-70
2021/09/24 04:30:49;;;;;;;50.40;25.83;;;;;;;;;;5070850;28;20539;-70
2021/09/24 04:33:16;;;;;;;48.15;28.50;;;;;;;;;;5067112;28;20620;-71
2021/09/24 04:35:42;;;;;;;51.63;27.23;;;;;;;;;;5069540;28;20502;-70
2021/09/24 04:38:08;;;;;;;48.70;25.90;;;;;;;;;;5063869;28;20056;-70
2021/09/24 04:40:34;;;;;;;55.22;26.33;;;;;;;;;;5071393;28;20037;-70
2021/09/24 04:43:00;;;;;;;54.42;26.67;;;;;;;;;;5070277;28;20032;-70
2021/09/24 04:45:26;;;;;;;47.30;26.88;;;;;;;;;;5070996;28;20028;-70
2021/09/24 04:47:52;;;;;;;50.20;25.95;;;;;;;;;;5065757;28;20090;-70
2021/09/24 04:50:18;;;;;;;54.38;28.15;;;;;;;;;;5068617;28;20501;-70
2021/09/24 04:52:44;;;;;;;52.03;26.98;;;;;;;;;;5070184;28;20036;-71
2021/09/24 04:55:11;;;;;;;49.20;27.48;;;;;;;;;;5069936;28;20476;-70
2021/09/24 04:57:37;;;;;;;48.90;25.98;;;;;;;;;;5068328;28;20013;-70
2021/09/24 05:00:05;;;;;;;52.17;28.35;;;;;;;;;;5070537;28;20055;-71
2021/09/24 05:02:31;;;;;;;54.10;27.42;;;;;;;;;;5069880;28;20024;-70
2021/09/24 05:04:57;;;;;;;53.70;28.83;;;;;;;;;;5070921;28;20058;-70
2021/09/24 05:07:23;;;;;;;52.00;27.27;;;;;;;;;;5067354;28;20227;-70
2021/09/24 05:09:49;;;;;;;52.20;26.77;;;;;;;;;;5069759;28;20056;-70
2021/09/24 05:12:15;;;;;;;51.72;26.77;;;;;;;;;;5067297;28;20024;-70
2021/09/24 05:14:41;;;;;;;62.00;28.25;;;;;;;;;;5067728;28;20028;-70
2021/09/24 05:17:07;;;;;;;54.38;27.45;;;;;;;;;;5067750;28;20112;-70
2021/09/24 05:19:33;;;;;;;51.95;26.90;;;;;;;;;;5067911;28;20021;-70
2021/09/24 05:21:59;;;;;;;52.55;26.95;;;;;;;;;;5071860;28;20039;-70
2021/09/24 05:24:26;;;;;;;51.03;28.98;;;;;;;;;;5067949;28;20047;-71
2021/09/24 05:26:52;;;;;;;44.85;27.70;;;;;;;;;;5070720;28;20032;-70
2021/09/24 05:29:18;;;;;;;46.63;28.60;;;;;;;;;;5069841;28;20043;-70
2021/09/24 05:31:46;;;;;;;49.30;28.08;;;;;;;;;;5070143;28;20086;-71
2021/09/24 05:34:12;;;;;;;55.30;28.17;;;;;;;;;;5068910;28;20020;-70
2021/09/24 05:36:38;;;;;;;57.10;29.00;;;;;;;;;;5071160;28;20036;-70
2021/09/24 05:39:04;;;;;;;53.38;28.50;;;;;;;;;;5067493;28;20044;-70
2021/09/24 05:41:30;;;;;;;58.05;29.48;;;;;;;;;;5070478;28;20345;-70
2021/09/24 05:43:56;;;;;;;58.58;28.90;;;;;;;;;;5070731;28;20530;-71
2021/09/24 05:46:22;;;;;;;51.25;28.77;;;;;;;;;;5070961;28;20039;-70
2021/09/24 05:48:48;;;;;;;49.53;29.73;;;;;;;;;;5067589;28;20028;-70
2021/09/24 05:51:14;;;;;;;54.90;29.00;;;;;;;;;;5069429;28;20490;-70
2021/09/24 05:53:41;;;;;;;50.33;29.73;;;;;;;;;;5070596;28;20025;-70
2021/09/24 05:56:07;;;;;;;52.05;29.52;;;;;;;;;;5069159;28;20028;-70
2021/09/24 05:58:33;;;;;;;53.92;29.13;;;;;;;;;;5067727;28;20028;-71
2021/09/24 06:00:59;;;;;;;49.78;28.55;;;;;;;;;;5069227;28;20040;-71
2021/09/24 06:03:25;;;;;;;51.67;29.35;;;;;;;;;;5070485;28;20029;-70
2021/09/24 06:05:51;;;;;;;46.20;28.25;;;;;;;;;;5070512;28;20024;-71
2021/09/24 06:08:17;;;;;;;51.78;30.60;;;;;;;;;;5067514;28;20540;-71
2021/09/24 06:10:43;;;;;;;50.05;29.80;;;;;;;;;;5070085;28;20033;-71
2021/09/24 06:13:09;;;;;;;53.22;30.50;;;;;;;;;;5069850;28;20020;-70
2021/09/24 06:15:36;;;;;;;47.25;28.15;;;;;;;;;;5069644;28;20020;-71
2021/09/24 06:18:03;;;;;;;54.83;29.35;;;;;;;;;;5067509;28;20559;-71
2021/09/24 06:20:29;;;;;;;50.53;30.80;;;;;;;;;;5070373;28;20025;-71
2021/09/24 06:22:55;;;;;;;54.65;31.70;;;;;;;;;;5070221;28;20142;-71
2021/09/24 06:25:21;;;;;;;48.97;29.98;;;;;;;;;;5070401;28;20036;-70
2021/09/24 06:27:48;;;;;;;51.97;30.85;;;;;;;;;;5067727;28;20029;-70
2021/09/24 06:30:19;;;;;;;52.35;29.95;;;;;;;;;;5070110;28;20233;-71
2021/09/24 06:32:45;;;;;;;49.40;29.00;;;;;;;;;;5069848;28;20402;-71
2021/09/24 06:35:12;;;;;;;48.88;28.33;;;;;;;;;;5070369;28;20024;-70
2021/09/24 06:37:39;;;;;;;47.72;27.15;;;;;;;;;;5067112;28;20020;-71
2021/09/24 06:40:06;;;;;;;45.10;27.98;;;;;;;;;;5069125;28;20273;-71
2021/09/24 06:42:32;;;;;;;47.50;28.65;;;;;;;;;;5070207;28;20037;-71
2021/09/24 06:44:58;;;;;;;47.40;27.90;;;;;;;;;;5071084;28;20027;-71
2021/09/24 06:47:25;;;;;;;48.97;27.30;;;;;;;;;;5071155;28;20510;-70
2021/09/24 06:49:51;;;;;;;42.97;27.67;;;;;;;;;;5073586;28;20490;-71
2021/09/24 06:52:17;;;;;;;53.88;29.38;;;;;;;;;;5073836;28;20544;-72
2021/09/24 06:54:43;;;;;;;50.67;27.58;;;;;;;;;;5073392;28;20029;-71
2021/09/24 06:57:09;;;;;;;41.47;27.52;;;;;;;;;;5067327;28;20020;-71
2021/09/24 06:59:35;;;;;;;51.75;28.85;;;;;;;;;;5073050;28;20027;-71
2021/09/24 07:02:01;;;;;;;48.28;27.92;;;;;;;;;;5073073;28;20457;-71
2021/09/24 07:04:27;;;;;;;54.63;29.00;;;;;;;;;;5073608;28;20024;-71
2021/09/24 07:06:54;;;;;;;48.80;29.60;;;;;;;;;;5073789;28;20044;-71
2021/09/24 07:09:20;;;;;;;50.53;28.77;;;;;;;;;;5070778;28;20643;-71
2021/09/24 07:11:49;;;;;;;54.00;30.02;;;;;;;;;;5073227;28;20032;-72
2021/09/24 07:14:19;;;;;;;54.38;28.42;;;;;;;;;;5073521;28;20510;-73
2021/09/24 07:16:47;;;;;;;49.08;30.35;;;;;;;;;;5071700;28;20073;-71
2021/09/24 07:19:13;;;;;;;53.03;29.08;;;;;;;;;;5066836;28;20494;-72
2021/09/24 07:21:39;;;;;;;55.58;30.77;;;;;;;;;;5057738;28;20035;-71
2021/09/24 07:24:07;;;;;;;50.03;28.75;;;;;;;;;;5073017;28;20025;-71
2021/09/24 07:26:33;;;;;;;47.42;29.83;;;;;;;;;;5072866;28;20027;-71
2021/09/24 07:28:59;;;;;;;54.17;27.70;;;;;;;;;;5070004;28;20025;-72
2021/09/24 07:31:26;;;;;;;49.47;29.02;;;;;;;;;;5072612;28;20068;-71
2021/09/24 07:33:52;;;;;;;49.80;27.38;;;;;;;;;;5072576;28;20021;-72
2021/09/24 07:36:19;;;;;;;42.75;23.50;;;;;;;;;;5073137;28;20025;-71
2021/09/24 07:38:45;;;;;;;39.20;21.58;;;;;;;;;;5069969;28;20494;-71
2021/09/24 07:41:12;;;;;;;28.13;18.98;;;;;;;;;;5072450;28;20694;-72
2021/09/24 07:43:38;;;;;;;27.52;16.90;;;;;;;;;;5071844;28;20070;-72
2021/09/24 07:46:04;;;;;;;24.45;17.55;;;;;;;;;;5073225;28;20028;-72
2021/09/24 07:48:30;;;;;;;27.83;16.23;;;;;;;;;;5070045;28;20033;-71
2021/09/24 07:50:56;;;;;;;29.67;15.20;;;;;;;;;;5072468;28;20486;-71
2021/09/24 07:53:23;;;;;;;28.58;16.27;;;;;;;;;;5068397;28;20468;-71
2021/09/24 07:55:49;;;;;;;28.08;16.25;;;;;;;;;;5068447;28;20033;-71
2021/09/24 07:58:15;;;;;;;23.88;15.13;;;;;;;;;;5066711;28;20028;-71
2021/09/24 08:00:41;;;;;;;20.77;13.32;;;;;;;;;;5071710;28;20032;-71
2021/09/24 08:03:07;;;;;;;26.25;14.82;;;;;;;;;;5072693;28;20026;-70
2021/09/24 08:05:33;;;;;;;26.67;13.60;;;;;;;;;;5070606;28;20041;-71
2021/09/24 08:07:59;;;;;;;24.88;12.57;;;;;;;;;;5069736;28;20376;-70
2021/09/24 08:10:26;;;;;;;21.60;11.23;;;;;;;;;;5064846;28;20052;-71
2021/09/24 08:12:55;;;;;;;23.45;10.82;;;;;;;;;;5052057;28;20111;-72
2021/09/24 08:15:21;;;;;;;21.85;9.82;;;;;;;;;;5069712;28;20025;-72
2021/09/24 08:17:47;;;;;;;20.42;9.90;;;;;;;;;;5069761;28;20044;-71
2021/09/24 08:20:14;;;;;;;20.27;10.75;;;;;;;;;;5071882;28;20032;-71
2021/09/24 08:22:40;;;;;;;17.73;8.80;;;;;;;;;;5071916;28;20040;-72
2021/09/24 08:25:10;;;;;;;19.20;9.38;;;;;;;;;;5072129;28;20116;-72
2021/09/24 08:27:36;;;;;;;17.90;7.63;;;;;;;;;;5069336;28;20446;-71
2021/09/24 08:30:06;;;;;;;20.73;8.80;;;;;;;;;;5071730;28;20028;-71
2021/09/24 08:32:36;;;;;;;16.95;7.47;;;;;;;;;;5072186;28;20029;-70
2021/09/24 08:35:03;;;;;;;18.25;7.15;;;;;;;;;;5071792;28;20070;-71
2021/09/24 08:37:29;;;;;;;18.60;7.88;;;;;;;;;;5068506;28;20047;-71
2021/09/24 08:39:55;;;;;;;24.80;7.63;;;;;;;;;;5071226;28;20032;-71
2021/09/24 08:42:21;;;;;;;11.60;5.78;;;;;;;;;;5072007;28;20021;-71
2021/09/24 08:44:50;;;;;;;15.18;7.63;;;;;;;;;;5071479;28;20028;-71
2021/09/24 08:47:17;;;;;;;16.65;5.93;;;;;;;;;;5069113;28;20024;-71
2021/09/24 08:49:46;;;;;;;13.52;5.43;;;;;;;;;;5071052;28;20115;-71
2021/09/24 08:52:12;;;;;;;12.15;5.47;;;;;;;;;;5071057;28;20028;-71
2021/09/24 08:54:38;;;;;;;17.80;5.53;;;;;;;;;;5071587;28;20089;-71
2021/09/24 08:57:04;;;;;;;15.93;6.05;;;;;;;;;;5069931;28;20040;-71
2021/09/24 08:59:31;;;;;;;12.25;6.32;;;;;;;;;;5070183;28;20027;-71
2021/09/24 09:02:04;;;;;;;13.07;5.30;;;;;;;;;;5070808;28;20101;-70
2021/09/24 09:04:33;;;;;;;10.88;4.80;;;;;;;;;;5071556;28;20036;-71
2021/09/24 09:07:06;;;;;;;10.48;4.47;;;;;;;;;;5070479;28;20024;-70
2021/09/24 09:09:35;;;;;;;11.45;4.60;;;;;;;;;;5069974;28;20127;-71
2021/09/24 09:12:15;;;;;;;11.05;4.20;;;;;;;;;;5070883;28;20024;-71
2021/09/24 09:14:41;;;;;;;10.48;4.70;;;;;;;;;;5071243;28;20282;-71
2021/09/24 09:17:26;;;;;;;8.93;3.40;;;;;;;;;;5069554;28;20016;-71
2021/09/24 09:20:07;;;;;;;10.13;3.92;;;;;;;;;;5066095;28;20501;-72
2021/09/24 09:22:33;;;;;;;7.40;2.85;;;;;;;;;;5071109;28;20082;-71
2021/09/24 09:24:59;;;;;;;4.68;2.40;;;;;;;;;;5070904;28;20444;-71
2021/09/24 09:27:27;;;;;;;8.27;2.38;;;;;;;;;;5068599;28;20044;-72
2021/09/24 09:30:01;;;;;;;9.88;2.67;;;;;;;;;;5070173;28;20025;-72
2021/09/24 09:32:27;;;;;;;4.78;2.17;;;;;;;;;;5071115;28;20102;-71
2021/09/24 09:34:53;;;;;;;8.55;2.50;;;;;;;;;;5070443;28;20021;-71
2021/09/24 09:37:20;;;;;;;11.05;2.72;;;;;;;;;;5068521;28;20059;-70
2021/09/24 09:40:01;;;;;;;5.68;1.95;;;;;;;;;;5070757;28;20017;-74
2021/09/24 09:42:37;;;;;;;8.98;2.72;;;;;;;;;;5051035;28;20443;-70
2021/09/24 09:45:04;;;;;;;6.93;2.17;;;;;;;;;;5052994;28;20111;-70
2021/09/24 09:47:31;;;;;;;6.40;1.67;;;;;;;;;;5067762;28;20028;-71
2021/09/24 09:50:04;;;;;;;5.95;1.98;;;;;;;;;;5070367;28;20028;-70
2021/09/24 09:52:32;;;;;;;5.93;1.90;;;;;;;;;;5070062;28;20035;-70
2021/09/24 09:55:02;;;;;;;5.45;1.50;;;;;;;;;;5070850;28;20497;-71
2021/09/24 09:57:28;;;;;;;7.75;1.73;;;;;;;;;;5067694;28;20327;-71
2021/09/24 09:59:56;;;;;;;16.02;3.25;;;;;;;;;;5070071;28;20036;-71
2021/09/24 10:02:33;;;;;;;6.78;2.42;;;;;;;;;;5068509;28;20028;-71
2021/09/24 10:05:01;;;;;;;7.68;2.00;;;;;;;;;;5067530;28;20031;-71
2021/09/24 10:07:28;;;;;;;5.80;1.92;;;;;;;;;;5067108;28;20039;-76
2021/09/24 10:10:06;;;;;;;6.43;2.22;;;;;;;;;;5070170;28;20032;-70
2021/09/24 10:12:33;;;;;;;6.40;1.92;;;;;;;;;;5055335;28;20493;-71
2021/09/24 10:14:59;;;;;;;10.90;3.28;;;;;;;;;;5070587;28;20029;-71
2021/09/24 10:17:25;;;;;;;3.85;1.65;;;;;;;;;;5065047;28;20024;-70
2021/09/24 10:19:53;;;;;;;7.57;1.90;;;;;;;;;;5070851;28;20028;-70
2021/09/24 10:22:20;;;;;;;8.25;1.83;;;;;;;;;;5074583;28;20072;-72
2021/09/24 10:24:46;;;;;;;4.95;1.70;;;;;;;;;;5074519;28;20098;-71
2021/09/24 10:27:16;;;;;;;8.55;2.17;;;;;;;;;;5072335;28;20075;-70
2021/09/24 10:29:44;;;;;;;4.72;1.70;;;;;;;;;;5073705;28;20055;-71
2021/09/24 10:32:21;;;;;;;7.82;2.13;;;;;;;;;;5074214;28;20040;-73
2021/09/24 10:34:52;;;;;;;5.55;1.85;;;;;;;;;;5074328;28;20016;-71
2021/09/24 10:37:19;;;;;;;8.23;1.95;;;;;;;;;;5070106;28;20203;-71
2021/09/24 10:39:47;;;;;;;9.27;2.35;;;;;;;;;;5072352;28;20063;-70
2021/09/24 10:42:25;;;;;;;6.85;1.98;;;;;;;;;;5069153;28;20052;-71
2021/09/24 10:44:57;;;;;;;7.25;2.30;;;;;;;;;;5071141;28;20028;-71
2021/09/24 10:47:42;;;;;;;6.55;2.00;;;;;;;;;;5071627;28;20028;-72
2021/09/24 10:50:27;;;;;;;8.68;2.65;;;;;;;;;;5073600;28;20406;-71
2021/09/24 10:53:12;;;;;;;5.82;2.80;;;;;;;;;;5062174;28;20028;-71
2021/09/24 10:55:41;;;;;;;9.43;2.67;;;;;;;;;;5070048;28;20471;-71
2021/09/24 10:58:07;;;;;;;6.70;2.28;;;;;;;;;;5069507;28;20017;-71
2021/09/24 11:00:34;;;;;;;9.48;2.35;;;;;;;;;;5069849;28;20048;-72
2021/09/24 11:03:26;;;;;;;5.63;2.30;;;;;;;;;;5059900;28;20036;-71
2021/09/24 11:05:57;;;;;;;5.50;1.70;;;;;;;;;;5058739;28;20094;-70
2021/09/24 11:08:38;;;;;;;6.27;2.00;;;;;;;;;;5071120;28;20029;-70
2021/09/24 11:11:04;;;;;;;9.32;2.40;;;;;;;;;;5066494;28;20025;-70
2021/09/24 11:13:31;;;;;;;6.75;2.28;;;;;;;;;;5055082;28;20490;-71
2021/09/24 11:16:07;;;;;;;4.75;1.88;;;;;;;;;;5053578;28;20242;-70
2021/09/24 11:18:48;;;;;;;9.98;2.20;;;;;;;;;;5062702;28;20031;-70
2021/09/24 11:21:15;;;;;;;6.50;1.98;;;;;;;;;;5060490;28;20067;-73
2021/09/24 11:23:41;;;;;;;6.20;2.15;;;;;;;;;;5061829;28;20118;-72
2021/09/24 11:26:16;;;;;;;6.40;2.30;;;;;;;;;;5055785;28;20036;-71
2021/09/24 11:28:43;;;;;;;7.20;2.17;;;;;;;;;;5055073;28;20036;-72
2021/09/24 11:31:09;;;;;;;6.80;2.50;;;;;;;;;;5059210;28;20059;-71
2021/09/24 11:33:40;;;;;;;11.02;2.20;;;;;;;;;;5058859;28;20032;-75
2021/09/24 11:36:06;;;;;;;6.00;2.17;;;;;;;;;;5070945;28;20445;-71
2021/09/24 11:38:32;;;;;;;6.80;2.42;;;;;;;;;;5059766;28;20021;-71
2021/09/24 11:40:59;;;;;;;7.45;2.67;;;;;;;;;;5065737;28;20045;-71
2021/09/24 11:43:26;;;;;;;4.68;2.30;;;;;;;;;;5058675;28;20064;-71
2021/09/24 11:45:53;;;;;;;7.70;2.60;;;;;;;;;;5065572;28;20067;-70
2021/09/24 11:48:29;;;;;;;8.52;2.90;;;;;;;;;;5060463;28;20120;-70
2021/09/24 11:50:55;;;;;;;7.22;3.30;;;;;;;;;;5071421;28;20067;-70
2021/09/24 11:53:22;;;;;;;9.10;2.70;;;;;;;;;;5062734;28;20013;-71
2021/09/24 11:55:48;;;;;;;8.93;2.88;;;;;;;;;;5057963;28;20031;-71
2021/09/24 11:58:20;;;;;;;8.32;2.60;;;;;;;;;;5067216;28;20036;-74
2021/09/24 12:00:46;;;;;;;11.13;2.92;;;;;;;;;;5069613;28;20103;-72
2021/09/24 12:03:17;;;;;;;6.95;2.90;;;;;;;;;;5071044;28;20067;-69
2021/09/24 12:06:08;;;;;;;8.82;3.10;;;;;;;;;;5069837;28;20029;-72
2021/09/24 12:08:39;;;;;;;11.85;2.30;;;;;;;;;;5049651;28;20041;-71
2021/09/24 12:11:07;;;;;;;9.35;2.97;;;;;;;;;;5061264;28;20487;-70
2021/09/24 12:13:41;;;;;;;9.93;3.47;;;;;;;;;;5068783;28;20025;-71
2021/09/24 12:16:08;;;;;;;10.15;2.63;;;;;;;;;;5060889;28;20281;-71
2021/09/24 12:19:03;;;;;;;8.55;2.72;;;;;;;;;;5066379;28;20499;-68
2021/09/24 12:21:49;;;;;;;12.98;2.80;;;;;;;;;;5045633;28;20041;-71
2021/09/24 12:24:18;;;;;;;12.68;3.00;;;;;;;;;;5061412;28;20037;-70
2021/09/24 12:26:46;;;;;;;6.82;2.08;;;;;;;;;;5067341;28;20028;-71
2021/09/24 12:29:14;;;;;;;6.65;2.40;;;;;;;;;;5052256;28;20106;-71
2021/09/24 12:31:50;;;;;;;9.75;2.83;;;;;;;;;;5057958;28;20368;-72
2021/09/24 12:34:21;;;;;;;15.00;3.28;;;;;;;;;;5060611;28;20051;-71
2021/09/24 12:36:53;;;;;;;7.97;2.30;;;;;;;;;;5069050;28;20017;-70
2021/09/24 12:39:22;;;;;;;6.68;1.77;;;;;;;;;;5064634;28;20043;-72
2021/09/24 12:41:48;;;;;;;8.25;1.73;;;;;;;;;;5070412;28;20063;-74
2021/09/24 12:44:14;;;;;;;8.38;1.85;;;;;;;;;;5069817;28;20035;-71
2021/09/24 12:46:45;;;;;;;8.05;2.22;;;;;;;;;;5072218;28;20035;-71
2021/09/24 12:49:11;;;;;;;6.28;1.90;;;;;;;;;;5069363;28;20033;-73
2021/09/24 12:51:37;;;;;;;6.65;1.88;;;;;;;;;;5070620;28;20115;-71
2021/09/24 12:54:04;;;;;;;6.57;1.48;;;;;;;;;;5069679;28;20226;-71
2021/09/24 12:56:33;;;;;;;7.70;1.95;;;;;;;;;;5070726;28;20036;-71
2021/09/24 12:59:00;;;;;;;7.50;1.85;;;;;;;;;;5067173;28;20478;-71
2021/09/24 13:01:26;;;;;;;8.30;1.52;;;;;;;;;;5070413;28;20123;-72
2021/09/24 13:03:56;;;;;;;8.88;1.70;;;;;;;;;;5070928;28;20033;-74
2021/09/24 13:06:23;;;;;;;7.32;1.67;;;;;;;;;;5075541;28;20497;-71
2021/09/24 13:08:53;;;;;;;5.38;1.70;;;;;;;;;;5061749;28;20055;-72
2021/09/24 13:11:23;;;;;;;9.75;2.08;;;;;;;;;;5067179;28;20509;-71
2021/09/24 13:13:51;;;;;;;8.45;1.95;;;;;;;;;;5069547;28;20483;-73
2021/09/24 13:16:18;;;;;;;10.15;2.20;;;;;;;;;;5067936;28;20451;-75
2021/09/24 13:18:44;;;;;;;10.02;1.83;;;;;;;;;;5069431;28;20499;-69
2021/09/24 13:21:10;;;;;;;10.95;1.92;;;;;;;;;;5073739;28;20040;-71
2021/09/24 13:23:36;;;;;;;13.93;2.50;;;;;;;;;;5075773;28;20037;-71
2021/09/24 13:26:02;;;;;;;6.32;1.88;;;;;;;;;;5060764;28;20033;-73
2021/09/24 13:28:28;;;;;;;8.30;1.85;;;;;;;;;;5061758;28;20047;-73
2021/09/24 13:30:54;;;;;;;8.23;1.98;;;;;;;;;;5059529;28;20032;-72
2021/09/24 13:33:21;;;;;;;11.70;2.33;;;;;;;;;;5058028;28;20025;-71
2021/09/24 13:35:48;;;;;;;8.77;1.98;;;;;;;;;;5063282;28;20059;-71
2021/09/24 13:38:14;;;;;;;9.55;2.72;;;;;;;;;;5064713;28;20017;-72
2021/09/24 13:40:40;;;;;;;8.88;2.08;;;;;;;;;;5067527;28;20460;-71
2021/09/24 13:43:08;;;;;;;8.35;2.00;;;;;;;;;;5068668;28;20051;-72
2021/09/24 13:45:34;;;;;;;10.50;2.17;;;;;;;;;;5066917;28;20028;-70
2021/09/24 13:48:01;;;;;;;12.13;2.42;;;;;;;;;;5062767;28;20073;-72
2021/09/24 13:50:27;;;;;;;10.77;2.35;;;;;;;;;;5069686;28;20086;-72
2021/09/24 13:52:54;;;;;;;11.30;1.98;;;;;;;;;;5064381;28;20016;-75
2021/09/24 13:55:21;;;;;;;10.15;1.80;;;;;;;;;;5067855;28;20046;-73
2021/09/24 13:57:47;;;;;;;5.70;1.95;;;;;;;;;;5066208;28;20071;-76
2021/09/24 14:00:14;;;;;;;7.93;1.67;;;;;;;;;;5067703;28;20047;-71
2021/09/24 14:02:44;;;;;;;17.10;2.67;;;;;;;;;;5069300;28;20029;-72
2021/09/24 14:05:11;;;;;;;11.43;2.00;;;;;;;;;;5068624;28;20029;-71
2021/09/24 14:07:37;;;;;;;8.32;1.98;;;;;;;;;;5065330;28;20058;-72
2021/09/24 14:10:04;;;;;;;8.18;1.77;;;;;;;;;;5069002;28;20067;-73
2021/09/24 14:12:30;;;;;;;9.60;2.42;;;;;;;;;;5069281;28;20182;-72
2021/09/24 14:14:56;;;;;;;11.60;2.75;;;;;;;;;;5069192;28;20028;-72
2021/09/24 14:17:22;;;;;;;9.52;2.22;;;;;;;;;;5066874;28;20016;-73
2021/09/24 14:19:48;;;;;;;10.70;2.67;;;;;;;;;;5069017;28;20028;-72
2021/09/24 14:22:14;;;;;;;7.50;2.08;;;;;;;;;;5068819;28;20056;-72
2021/09/24 14:24:40;;;;;;;10.05;2.20;;;;;;;;;;5069060;28;20475;-73
2021/09/24 14:27:07;;;;;;;9.50;2.92;;;;;;;;;;5061042;28;20482;-71
2021/09/24 14:29:34;;;;;;;11.60;3.28;;;;;;;;;;5080425;28;20086;-72